sensor_id;sensor_type;location;lat;lon;timestamp;pressure;altitude;pressure_sealevel;temperature;humidity
61961;BME280;47923;42.506;24.192;2023-03-31T00:01:36;95519.75;;;2.59;62.54
61961;BME280;47923;42.506;24.192;2023-03-31T00:04:07;95237.81;;;0.65;62.44
61961;BME280;47923;42.506;24.192;2023-03-31T00:06:35;95522.19;;;2.47;62.10
61961;BME280;47923;42.506;24.192;2023-03-31T00:09:07;95584.19;;;2.75;62.12
61961;BME280;47923;42.506;24.192;2023-03-31T00:11:32;95573.16;;;2.68;62.48
61961;BME280;47923;42.506;24.192;2023-03-31T00:13:58;95530.88;;;2.30;63.46
61961;BME280;47923;42.506;24.192;2023-03-31T00:16:24;95587.38;;;2.63;63.70
61961;BME280;47923;42.506;24.192;2023-03-31T00:18:49;95333.25;;;1.02;63.80
61961;BME280;47923;42.506;24.192;2023-03-31T00:21:19;95529.47;;;2.33;63.56
61961;BME280;47923;42.506;24.192;2023-03-31T00:23:56;95571.38;;;2.63;63.60
61961;BME280;47923;42.506;24.192;2023-03-31T00:26:22;95318.09;;;1.03;63.62
61961;BME280;47923;42.506;24.192;2023-03-31T00:28:48;95325.25;;;1.02;64.97
61961;BME280;47923;42.506;24.192;2023-03-31T00:31:14;95569.28;;;2.52;64.94
61961;BME280;47923;42.506;24.192;2023-03-31T00:33:40;95562.97;;;2.47;63.44
61961;BME280;47923;42.506;24.192;2023-03-31T00:36:06;95558.31;;;2.53;64.42
61961;BME280;47923;42.506;24.192;2023-03-31T00:38:32;95495.91;;;2.09;63.56
61961;BME280;47923;42.506;24.192;2023-03-31T00:40:59;95555.69;;;2.62;64.52
61961;BME280;47923;42.506;24.192;2023-03-31T00:43:31;95555.22;;;2.60;64.56
61961;BME280;47923;42.506;24.192;2023-03-31T00:46:30;95419.31;;;1.70;65.40
61961;BME280;47923;42.506;24.192;2023-03-31T00:48:58;95211.91;;;0.34;65.40
61961;BME280;47923;42.506;24.192;2023-03-31T00:51:28;95542.09;;;2.49;64.85
61961;BME280;47923;42.506;24.192;2023-03-31T00:53:57;95545.88;;;2.48;63.99
61961;BME280;47923;42.506;24.192;2023-03-31T00:56:28;95550.41;;;2.48;64.67
61961;BME280;47923;42.506;24.192;2023-03-31T00:58:56;95309.84;;;0.91;65.87
61961;BME280;47923;42.506;24.192;2023-03-31T01:01:25;95217.81;;;0.31;63.50
61961;BME280;47923;42.506;24.192;2023-03-31T01:03:51;95543.09;;;2.31;64.02
61961;BME280;47923;42.506;24.192;2023-03-31T01:06:19;95478.50;;;1.89;65.13
61961;BME280;47923;42.506;24.192;2023-03-31T01:08:47;95536.41;;;2.20;64.36
61961;BME280;47923;42.506;24.192;2023-03-31T01:11:17;95245.47;;;0.30;67.08
61961;BME280;47923;42.506;24.192;2023-03-31T01:13:43;95527.13;;;1.95;64.56
61961;BME280;47923;42.506;24.192;2023-03-31T01:16:10;95399.56;;;1.13;64.74
61961;BME280;47923;42.506;24.192;2023-03-31T01:18:36;95184.53;;;-0.30;65.07
61961;BME280;47923;42.506;24.192;2023-03-31T01:29:55;95511.06;;;1.50;67.68
61961;BME280;47923;42.506;24.192;2023-03-31T01:40:37;95505.75;;;1.50;69.40
61961;BME280;47923;42.506;24.192;2023-03-31T01:43:22;95504.09;;;1.54;70.08
61961;BME280;47923;42.506;24.192;2023-03-31T01:46:00;95497.47;;;1.52;70.12
61961;BME280;47923;42.506;24.192;2023-03-31T01:51:48;95505.53;;;1.47;68.69
61961;BME280;47923;42.506;24.192;2023-03-31T01:54:43;95468.81;;;1.21;69.25
61961;BME280;47923;42.506;24.192;2023-03-31T01:59:55;95511.16;;;1.59;66.75
61961;BME280;47923;42.506;24.192;2023-03-31T02:02:36;95452.28;;;1.47;65.97
61961;BME280;47923;42.506;24.192;2023-03-31T02:05:08;95498.56;;;1.87;67.01
61961;BME280;47923;42.506;24.192;2023-03-31T02:07:42;95490.31;;;1.97;67.00
61961;BME280;47923;42.506;24.192;2023-03-31T02:10:12;95481.47;;;1.88;66.85
61961;BME280;47923;42.506;24.192;2023-03-31T02:12:41;95496.44;;;2.20;67.13
61961;BME280;47923;42.506;24.192;2023-03-31T02:15:11;95511.22;;;2.26;65.68
61961;BME280;47923;42.506;24.192;2023-03-31T02:17:39;95492.31;;;2.36;65.82
61961;BME280;47923;42.506;24.192;2023-03-31T02:20:14;95227.00;;;0.61;66.78
61961;BME280;47923;42.506;24.192;2023-03-31T02:22:45;95091.41;;;-0.20;64.49
61961;BME280;47923;42.506;24.192;2023-03-31T02:25:15;95490.03;;;2.43;65.93
61961;BME280;47923;42.506;24.192;2023-03-31T02:27:47;95080.19;;;-0.17;66.32
61961;BME280;47923;42.506;24.192;2023-03-31T02:30:14;95334.19;;;1.43;67.81
61961;BME280;47923;42.506;24.192;2023-03-31T02:32:41;95479.69;;;2.51;68.89
61961;BME280;47923;42.506;24.192;2023-03-31T02:35:10;95486.91;;;2.50;68.65
61961;BME280;47923;42.506;24.192;2023-03-31T02:37:37;94968.19;;;-0.91;67.27
61961;BME280;47923;42.506;24.192;2023-03-31T02:40:11;95436.97;;;2.11;66.20
61961;BME280;47923;42.506;24.192;2023-03-31T02:42:39;95492.53;;;2.48;66.42
61961;BME280;47923;42.506;24.192;2023-03-31T02:48:00;95511.78;;;2.68;67.88
61961;BME280;47923;42.506;24.192;2023-03-31T02:50:30;95500.69;;;2.74;67.81
61961;BME280;47923;42.506;24.192;2023-03-31T02:53:43;95273.41;;;1.36;67.19
61961;BME280;47923;42.506;24.192;2023-03-31T03:07:33;95168.19;;;1.07;66.77
61961;BME280;47923;42.506;24.192;2023-03-31T03:10:43;95501.97;;;3.25;67.14
61961;BME280;47923;42.506;24.192;2023-03-31T03:13:08;95509.03;;;3.30;67.22
61961;BME280;47923;42.506;24.192;2023-03-31T03:15:59;95177.06;;;1.25;66.61
61961;BME280;47923;42.506;24.192;2023-03-31T03:18:26;95498.09;;;3.40;66.17
61961;BME280;47923;42.506;24.192;2023-03-31T03:20:51;95499.53;;;3.46;65.59
61961;BME280;47923;42.506;24.192;2023-03-31T03:23:17;95338.78;;;2.35;70.07
61961;BME280;47923;42.506;24.192;2023-03-31T03:25:43;95500.78;;;3.49;70.58
61961;BME280;47923;42.506;24.192;2023-03-31T03:28:09;95268.88;;;1.99;70.71
61961;BME280;47923;42.506;24.192;2023-03-31T03:30:35;95135.94;;;1.09;70.71
61961;BME280;47923;42.506;24.192;2023-03-31T03:33:00;95396.78;;;2.69;69.12
61961;BME280;47923;42.506;24.192;2023-03-31T03:35:27;95426.22;;;2.95;70.26
61961;BME280;47923;42.506;24.192;2023-03-31T03:37:53;95499.34;;;3.51;70.62
61961;BME280;47923;42.506;24.192;2023-03-31T03:40:18;95429.81;;;2.99;70.75
61961;BME280;47923;42.506;24.192;2023-03-31T03:42:44;95350.09;;;2.49;71.01
61961;BME280;47923;42.506;24.192;2023-03-31T03:45:09;95422.00;;;3.12;70.58
61961;BME280;47923;42.506;24.192;2023-03-31T03:47:35;95487.44;;;3.57;72.57
61961;BME280;47923;42.506;24.192;2023-03-31T03:50:02;95483.19;;;3.65;72.08
61961;BME280;47923;42.506;24.192;2023-03-31T03:52:28;95306.53;;;2.63;72.46
61961;BME280;47923;42.506;24.192;2023-03-31T03:54:53;95465.78;;;3.68;73.56
61961;BME280;47923;42.506;24.192;2023-03-31T03:57:20;95476.94;;;3.78;74.81
61961;BME280;47923;42.506;24.192;2023-03-31T03:59:45;95352.00;;;3.23;75.84
61961;BME280;47923;42.506;24.192;2023-03-31T04:02:11;95452.56;;;3.97;75.28
61961;BME280;47923;42.506;24.192;2023-03-31T04:04:36;95284.47;;;2.88;75.42
61961;BME280;47923;42.506;24.192;2023-03-31T04:07:02;95352.75;;;3.07;75.77
61961;BME280;47923;42.506;24.192;2023-03-31T04:09:27;94782.03;;;-0.17;75.88
61961;BME280;47923;42.506;24.192;2023-03-31T04:11:53;95438.53;;;4.18;75.58
61961;BME280;47923;42.506;24.192;2023-03-31T04:14:18;95077.78;;;1.90;75.90
61961;BME280;47923;42.506;24.192;2023-03-31T04:16:44;95262.31;;;3.14;77.23
61961;BME280;47923;42.506;24.192;2023-03-31T04:19:12;95435.41;;;4.15;77.25
61961;BME280;47923;42.506;24.192;2023-03-31T04:21:38;95439.28;;;4.35;78.00
61961;BME280;47923;42.506;24.192;2023-03-31T04:24:10;95446.53;;;4.35;75.42
61961;BME280;47923;42.506;24.192;2023-03-31T04:26:36;95437.41;;;4.36;77.26
61961;BME280;47923;42.506;24.192;2023-03-31T04:29:11;95441.47;;;4.42;77.88
61961;BME280;47923;42.506;24.192;2023-03-31T04:31:38;95319.75;;;3.72;77.49
61961;BME280;47923;42.506;24.192;2023-03-31T04:34:11;95437.66;;;4.52;76.84
61961;BME280;47923;42.506;24.192;2023-03-31T04:36:39;95428.38;;;4.58;77.41
61961;BME280;47923;42.506;24.192;2023-03-31T04:39:07;95427.56;;;4.66;77.43
61961;BME280;47923;42.506;24.192;2023-03-31T04:41:38;95387.03;;;4.38;77.47
61961;BME280;47923;42.506;24.192;2023-03-31T04:44:03;95423.88;;;4.79;77.70
61961;BME280;47923;42.506;24.192;2023-03-31T04:46:29;95294.66;;;4.02;79.27
61961;BME280;47923;42.506;24.192;2023-03-31T04:48:54;95295.44;;;4.11;79.59
61961;BME280;47923;42.506;24.192;2023-03-31T04:51:20;95279.44;;;3.94;80.01
61961;BME280;47923;42.506;24.192;2023-03-31T04:53:45;95428.19;;;5.01;79.00
61961;BME280;47923;42.506;24.192;2023-03-31T04:56:11;95163.09;;;3.12;79.34
61961;BME280;47923;42.506;24.192;2023-03-31T04:58:37;95442.44;;;5.14;79.12
61961;BME280;47923;42.506;24.192;2023-03-31T05:01:03;95429.31;;;5.21;79.38
61961;BME280;47923;42.506;24.192;2023-03-31T05:03:31;95036.78;;;2.82;81.15
61961;BME280;47923;42.506;24.192;2023-03-31T05:05:56;95385.94;;;5.07;81.08
61961;BME280;47923;42.506;24.192;2023-03-31T05:08:22;95339.78;;;5.10;80.67
61961;BME280;47923;42.506;24.192;2023-03-31T05:10:48;95431.34;;;5.74;80.49
61961;BME280;47923;42.506;24.192;2023-03-31T05:13:13;95401.94;;;5.66;80.17
61961;BME280;47923;42.506;24.192;2023-03-31T05:15:39;95335.72;;;5.45;79.84
61961;BME280;47923;42.506;24.192;2023-03-31T05:18:05;95287.19;;;5.26;79.44
61961;BME280;47923;42.506;24.192;2023-03-31T05:20:31;95414.59;;;6.19;78.82
61961;BME280;47923;42.506;24.192;2023-03-31T05:22:56;95054.41;;;4.01;78.90
61961;BME280;47923;42.506;24.192;2023-03-31T05:25:22;95411.41;;;6.50;78.65
61961;BME280;47923;42.506;24.192;2023-03-31T05:27:48;94853.66;;;3.07;77.93
61961;BME280;47923;42.506;24.192;2023-03-31T05:30:16;95414.25;;;6.78;78.16
61961;BME280;47923;42.506;24.192;2023-03-31T05:32:42;95408.00;;;6.99;77.25
61961;BME280;47923;42.506;24.192;2023-03-31T05:35:08;95410.47;;;7.16;76.55
61961;BME280;47923;42.506;24.192;2023-03-31T05:37:34;95327.22;;;6.67;76.26
61961;BME280;47923;42.506;24.192;2023-03-31T05:40:00;95395.13;;;7.29;76.09
61961;BME280;47923;42.506;24.192;2023-03-31T05:42:25;95395.53;;;7.43;75.35
61961;BME280;47923;42.506;24.192;2023-03-31T05:44:51;95398.88;;;7.52;74.38
61961;BME280;47923;42.506;24.192;2023-03-31T05:47:16;95399.09;;;7.59;73.37
61961;BME280;47923;42.506;24.192;2023-03-31T05:49:42;95127.78;;;5.90;73.42
61961;BME280;47923;42.506;24.192;2023-03-31T05:52:08;95291.81;;;7.02;73.36
61961;BME280;47923;42.506;24.192;2023-03-31T05:54:34;95392.22;;;7.74;73.90
61961;BME280;47923;42.506;24.192;2023-03-31T05:56:59;95373.06;;;7.63;72.89
61961;BME280;47923;42.506;24.192;2023-03-31T05:59:25;95383.97;;;7.95;72.00
61961;BME280;47923;42.506;24.192;2023-03-31T06:01:50;95389.06;;;8.00;70.46
61961;BME280;47923;42.506;24.192;2023-03-31T06:04:16;95259.22;;;7.15;70.32
61961;BME280;47923;42.506;24.192;2023-03-31T06:06:41;95391.91;;;8.19;69.25
61961;BME280;47923;42.506;24.192;2023-03-31T06:09:08;95381.44;;;8.30;69.03
61961;BME280;47923;42.506;24.192;2023-03-31T06:11:37;95399.63;;;8.49;68.79
61961;BME280;47923;42.506;24.192;2023-03-31T06:14:03;95385.22;;;8.73;68.17
61961;BME280;47923;42.506;24.192;2023-03-31T06:16:29;95391.84;;;8.91;66.82
61961;BME280;47923;42.506;24.192;2023-03-31T06:18:55;95276.94;;;8.48;66.83
61961;BME280;47923;42.506;24.192;2023-03-31T06:21:21;95307.72;;;9.17;65.57
61961;BME280;47923;42.506;24.192;2023-03-31T06:23:46;95178.47;;;10.32;59.60
61961;BME280;47923;42.506;24.192;2023-03-31T06:26:17;95366.53;;;12.73;54.20
61961;BME280;47923;42.506;24.192;2023-03-31T06:28:43;95352.06;;;13.03;51.48
61961;BME280;47923;42.506;24.192;2023-03-31T06:31:14;95367.56;;;13.06;51.14
61961;BME280;47923;42.506;24.192;2023-03-31T06:33:41;95146.06;;;11.59;51.21
61961;BME280;47923;42.506;24.192;2023-03-31T06:36:08;95336.28;;;12.64;50.97
61961;BME280;47923;42.506;24.192;2023-03-31T06:38:35;95349.97;;;12.82;50.55
61961;BME280;47923;42.506;24.192;2023-03-31T06:41:03;95219.53;;;11.95;49.06
61961;BME280;47923;42.506;24.192;2023-03-31T06:43:29;95373.72;;;12.95;49.25
61961;BME280;47923;42.506;24.192;2023-03-31T06:45:55;95332.03;;;12.70;49.26
61961;BME280;47923;42.506;24.192;2023-03-31T06:48:24;95254.91;;;12.57;47.99
61961;BME280;47923;42.506;24.192;2023-03-31T06:50:51;95302.06;;;13.62;46.55
61961;BME280;47923;42.506;24.192;2023-03-31T06:53:17;95250.31;;;14.81;42.93
61961;BME280;47923;42.506;24.192;2023-03-31T06:55:42;95189.59;;;16.56;38.26
61961;BME280;47923;42.506;24.192;2023-03-31T06:58:08;95333.66;;;18.87;35.29
61961;BME280;47923;42.506;24.192;2023-03-31T07:00:33;95297.25;;;18.63;34.37
61961;BME280;47923;42.506;24.192;2023-03-31T07:02:59;95357.81;;;18.04;36.25
61961;BME280;47923;42.506;24.192;2023-03-31T07:05:26;95281.38;;;16.84;37.34
61961;BME280;47923;42.506;24.192;2023-03-31T07:07:54;95303.72;;;15.95;38.10
61961;BME280;47923;42.506;24.192;2023-03-31T07:10:20;95361.78;;;15.53;39.55
61961;BME280;47923;42.506;24.192;2023-03-31T07:12:45;95095.75;;;13.30;39.91
61961;BME280;47923;42.506;24.192;2023-03-31T07:15:11;95251.41;;;14.05;40.30
61961;BME280;47923;42.506;24.192;2023-03-31T07:17:36;95306.91;;;14.04;41.18
61961;BME280;47923;42.506;24.192;2023-03-31T07:20:07;95263.81;;;13.96;41.24
61961;BME280;47923;42.506;24.192;2023-03-31T07:22:46;95367.63;;;14.80;40.79
61961;BME280;47923;42.506;24.192;2023-03-31T07:25:15;95300.00;;;14.46;40.37
61961;BME280;47923;42.506;24.192;2023-03-31T07:27:41;95366.09;;;14.93;40.15
61961;BME280;47923;42.506;24.192;2023-03-31T07:30:10;95357.19;;;16.44;37.98
61961;BME280;47923;42.506;24.192;2023-03-31T07:32:36;95360.34;;;17.47;35.88
61961;BME280;47923;42.506;24.192;2023-03-31T07:35:05;95347.28;;;19.65;32.21
61961;BME280;47923;42.506;24.192;2023-03-31T07:37:38;95342.66;;;22.04;28.62
61961;BME280;47923;42.506;24.192;2023-03-31T07:40:09;95332.75;;;21.48;28.41
61961;BME280;47923;42.506;24.192;2023-03-31T07:42:35;95238.00;;;19.86;30.10
61961;BME280;47923;42.506;24.192;2023-03-31T07:45:01;95097.22;;;18.14;30.90
61961;BME280;47923;42.506;24.192;2023-03-31T07:47:30;95216.91;;;20.72;29.52
61961;BME280;47923;42.506;24.192;2023-03-31T07:49:56;95325.00;;;24.14;25.35
61961;BME280;47923;42.506;24.192;2023-03-31T07:52:22;95158.91;;;25.60;22.06
61961;BME280;47923;42.506;24.192;2023-03-31T07:54:48;95325.09;;;27.48;21.38
61961;BME280;47923;42.506;24.192;2023-03-31T07:57:13;95254.16;;;26.14;21.81
61961;BME280;47923;42.506;24.192;2023-03-31T07:59:40;95313.72;;;25.15;22.93
61961;BME280;47923;42.506;24.192;2023-03-31T08:02:06;95317.44;;;24.27;23.92
61961;BME280;47923;42.506;24.192;2023-03-31T08:04:32;95318.69;;;23.23;25.57
61961;BME280;47923;42.506;24.192;2023-03-31T08:06:57;95313.16;;;22.46;26.36
61961;BME280;47923;42.506;24.192;2023-03-31T08:09:23;95256.22;;;21.76;26.95
61961;BME280;47923;42.506;24.192;2023-03-31T08:11:48;95310.50;;;22.01;27.84
61961;BME280;47923;42.506;24.192;2023-03-31T08:14:14;95079.31;;;19.56;28.73
61961;BME280;47923;42.506;24.192;2023-03-31T08:16:40;95239.34;;;21.00;28.44
61961;BME280;47923;42.506;24.192;2023-03-31T08:19:05;95245.66;;;21.74;27.54
61961;BME280;47923;42.506;24.192;2023-03-31T08:21:31;95189.09;;;22.28;26.78
61961;BME280;47923;42.506;24.192;2023-03-31T08:23:57;95262.66;;;23.95;24.71
61961;BME280;47923;42.506;24.192;2023-03-31T08:26:23;95223.25;;;23.16;25.40
61961;BME280;47923;42.506;24.192;2023-03-31T08:28:50;95274.31;;;23.77;25.01
61961;BME280;47923;42.506;24.192;2023-03-31T08:31:17;95185.72;;;23.97;25.00
61961;BME280;47923;42.506;24.192;2023-03-31T08:33:46;95253.47;;;26.89;21.62
61961;BME280;47923;42.506;24.192;2023-03-31T08:36:12;95029.34;;;26.10;21.64
61961;BME280;47923;42.506;24.192;2023-03-31T08:38:40;95141.72;;;28.70;19.98
61961;BME280;47923;42.506;24.192;2023-03-31T08:41:25;95242.97;;;30.00;18.86
61961;BME280;47923;42.506;24.192;2023-03-31T08:43:54;95250.31;;;30.49;18.35
61961;BME280;47923;42.506;24.192;2023-03-31T08:46:21;94918.53;;;28.84;18.13
61961;BME280;47923;42.506;24.192;2023-03-31T08:48:51;95240.66;;;30.19;17.94
61961;BME280;47923;42.506;24.192;2023-03-31T08:51:25;95248.78;;;27.29;21.01
61961;BME280;47923;42.506;24.192;2023-03-31T08:54:04;95148.34;;;24.36;23.81
61961;BME280;47923;42.506;24.192;2023-03-31T08:56:39;95249.91;;;24.19;24.44
61961;BME280;47923;42.506;24.192;2023-03-31T08:59:34;95211.97;;;22.88;25.32
61961;BME280;47923;42.506;24.192;2023-03-31T09:02:20;95203.69;;;22.76;26.33
61961;BME280;47923;42.506;24.192;2023-03-31T09:10:49;95179.06;;;27.74;20.25
61961;BME280;47923;42.506;24.192;2023-03-31T09:18:39;95096.88;;;29.43;17.92
61961;BME280;47923;42.506;24.192;2023-03-31T09:24:29;95200.09;;;31.83;16.20
61961;BME280;47923;42.506;24.192;2023-03-31T09:26:41;95170.75;;;30.48;17.08
61961;BME280;47923;42.506;24.192;2023-03-31T09:29:16;95189.63;;;29.55;17.99
61961;BME280;47923;42.506;24.192;2023-03-31T09:31:45;95201.50;;;29.35;18.40
61961;BME280;47923;42.506;24.192;2023-03-31T09:34:18;95209.53;;;29.74;18.25
61961;BME280;47923;42.506;24.192;2023-03-31T09:36:47;95203.94;;;30.52;17.06
61961;BME280;47923;42.506;24.192;2023-03-31T09:39:13;95090.66;;;30.43;16.77
61961;BME280;47923;42.506;24.192;2023-03-31T09:41:45;94936.31;;;29.50;16.51
61961;BME280;47923;42.506;24.192;2023-03-31T09:46:50;95181.69;;;30.26;17.32
61961;BME280;47923;42.506;24.192;2023-03-31T09:49:25;95187.34;;;30.06;17.52
61961;BME280;47923;42.506;24.192;2023-03-31T09:52:23;95182.66;;;30.49;16.69
61961;BME280;47923;42.506;24.192;2023-03-31T09:54:53;95183.41;;;29.05;18.07
61961;BME280;47923;42.506;24.192;2023-03-31T09:57:29;95172.41;;;26.94;19.51
61961;BME280;47923;42.506;24.192;2023-03-31T10:03:00;95184.97;;;26.81;20.05
61961;BME280;47923;42.506;24.192;2023-03-31T10:05:30;95191.06;;;27.42;19.70
61961;BME280;47923;42.506;24.192;2023-03-31T10:10:47;95182.00;;;31.62;16.66
61961;BME280;47923;42.506;24.192;2023-03-31T10:13:16;94988.59;;;31.39;15.70
61961;BME280;47923;42.506;24.192;2023-03-31T10:15:43;95161.78;;;32.29;16.00
61961;BME280;47923;42.506;24.192;2023-03-31T10:18:17;95042.66;;;29.33;16.85
61961;BME280;47923;42.506;24.192;2023-03-31T10:20:51;95105.13;;;29.84;17.07
61961;BME280;47923;42.506;24.192;2023-03-31T10:23:23;95126.59;;;29.78;17.48
61961;BME280;47923;42.506;24.192;2023-03-31T10:25:51;95149.56;;;29.99;17.57
61961;BME280;47923;42.506;24.192;2023-03-31T10:28:19;95142.38;;;29.40;17.91
61961;BME280;47923;42.506;24.192;2023-03-31T10:30:51;95138.94;;;28.20;19.08
61961;BME280;47923;42.506;24.192;2023-03-31T10:33:21;95144.34;;;27.79;19.36
61961;BME280;47923;42.506;24.192;2023-03-31T10:35:56;94988.56;;;27.57;19.48
61961;BME280;47923;42.506;24.192;2023-03-31T10:38:41;95139.03;;;29.57;18.23
61961;BME280;47923;42.506;24.192;2023-03-31T10:41:10;95141.81;;;29.36;17.99
61961;BME280;47923;42.506;24.192;2023-03-31T10:43:41;95002.72;;;28.44;17.78
61961;BME280;47923;42.506;24.192;2023-03-31T10:46:07;95124.91;;;27.94;18.46
61961;BME280;47923;42.506;24.192;2023-03-31T10:48:36;95143.34;;;28.41;18.88
61961;BME280;47923;42.506;24.192;2023-03-31T10:51:24;95135.31;;;27.54;19.53
61961;BME280;47923;42.506;24.192;2023-03-31T10:53:53;95128.66;;;26.51;20.37
61961;BME280;47923;42.506;24.192;2023-03-31T10:56:50;95130.03;;;25.80;20.82
61961;BME280;47923;42.506;24.192;2023-03-31T10:59:47;95131.72;;;24.76;22.36
61961;BME280;47923;42.506;24.192;2023-03-31T11:05:44;95121.41;;;23.56;23.81
61961;BME280;47923;42.506;24.192;2023-03-31T11:08:41;95111.16;;;23.35;23.94
61961;BME280;47923;42.506;24.192;2023-03-31T11:16:44;95108.66;;;22.71;24.79
61961;BME280;47923;42.506;24.192;2023-03-31T11:19:24;95097.06;;;22.42;25.16
61961;BME280;47923;42.506;24.192;2023-03-31T11:22:17;95095.63;;;22.50;24.84
61961;BME280;47923;42.506;24.192;2023-03-31T11:25:12;95079.66;;;22.45;25.20
61961;BME280;47923;42.506;24.192;2023-03-31T11:30:32;95078.03;;;22.69;25.02
61961;BME280;47923;42.506;24.192;2023-03-31T11:40:48;95062.38;;;22.44;24.82
61961;BME280;47923;42.506;24.192;2023-03-31T11:43:53;95062.19;;;21.37;25.84
61961;BME280;47923;42.506;24.192;2023-03-31T11:46:26;95055.38;;;21.29;26.02
61961;BME280;47923;42.506;24.192;2023-03-31T11:49:02;94998.22;;;20.82;26.29
61961;BME280;47923;42.506;24.192;2023-03-31T11:51:43;95050.09;;;21.34;25.85
61961;BME280;47923;42.506;24.192;2023-03-31T11:54:32;94912.34;;;19.81;26.52
61961;BME280;47923;42.506;24.192;2023-03-31T11:57:02;95055.16;;;20.94;26.43
61961;BME280;47923;42.506;24.192;2023-03-31T11:59:31;95022.97;;;20.94;26.11
61961;BME280;47923;42.506;24.192;2023-03-31T12:04:34;94950.59;;;20.47;26.36
61961;BME280;47923;42.506;24.192;2023-03-31T12:07:20;95037.09;;;21.22;26.09
61961;BME280;47923;42.506;24.192;2023-03-31T12:12:42;95021.66;;;21.54;26.15
61961;BME280;47923;42.506;24.192;2023-03-31T12:15:34;94991.06;;;21.90;25.96
61961;BME280;47923;42.506;24.192;2023-03-31T12:20:38;94923.13;;;20.76;26.05
61961;BME280;47923;42.506;24.192;2023-03-31T12:23:12;94992.88;;;20.91;26.40
61961;BME280;47923;42.506;24.192;2023-03-31T12:25:41;95025.25;;;20.83;26.80
61961;BME280;47923;42.506;24.192;2023-03-31T12:28:11;94994.88;;;20.61;27.16
61961;BME280;47923;42.506;24.192;2023-03-31T12:30:40;95001.78;;;20.37;27.50
61961;BME280;47923;42.506;24.192;2023-03-31T12:38:40;95010.75;;;19.92;28.10
61961;BME280;47923;42.506;24.192;2023-03-31T12:43:57;95002.88;;;19.94;28.13
61961;BME280;47923;42.506;24.192;2023-03-31T12:52:04;94890.13;;;18.78;28.50
61961;BME280;47923;42.506;24.192;2023-03-31T12:57:18;94865.00;;;18.83;28.03
61961;BME280;47923;42.506;24.192;2023-03-31T12:59:45;94989.16;;;19.94;27.86
61961;BME280;47923;42.506;24.192;2023-03-31T13:04:40;94996.81;;;19.70;27.68
61961;BME280;47923;42.506;24.192;2023-03-31T13:09:49;95000.81;;;19.66;28.14
61961;BME280;47923;42.506;24.192;2023-03-31T13:12:22;94987.28;;;19.58;28.24
61961;BME280;47923;42.506;24.192;2023-03-31T13:14:51;94905.25;;;19.19;28.20
61961;BME280;47923;42.506;24.192;2023-03-31T13:17:36;94972.03;;;19.74;27.97
61961;BME280;47923;42.506;24.192;2023-03-31T13:22:46;94945.59;;;19.83;28.11
61961;BME280;47923;42.506;24.192;2023-03-31T13:28:07;94955.75;;;19.50;28.44
61961;BME280;47923;42.506;24.192;2023-03-31T13:33:11;94950.16;;;19.38;28.80
61961;BME280;47923;42.506;24.192;2023-03-31T13:35:39;94945.63;;;19.15;29.77
61961;BME280;47923;42.506;24.192;2023-03-31T13:38:28;94946.78;;;19.66;28.79
61961;BME280;47923;42.506;24.192;2023-03-31T13:41:07;94720.47;;;18.45;28.51
61961;BME280;47923;42.506;24.192;2023-03-31T13:44:10;94939.19;;;20.03;28.26
61961;BME280;47923;42.506;24.192;2023-03-31T13:46:50;94918.94;;;19.84;28.66
61961;BME280;47923;42.506;24.192;2023-03-31T13:52:10;94929.75;;;20.20;28.50
61961;BME280;47923;42.506;24.192;2023-03-31T13:57:55;94921.72;;;20.13;27.93
61961;BME280;47923;42.506;24.192;2023-03-31T14:00:36;94761.78;;;18.84;28.68
61961;BME280;47923;42.506;24.192;2023-03-31T14:03:37;94906.38;;;19.70;28.77
61961;BME280;47923;42.506;24.192;2023-03-31T14:08:55;94901.25;;;18.87;30.25
61961;BME280;47923;42.506;24.192;2023-03-31T14:11:24;94899.91;;;18.59;30.46
61961;BME280;47923;42.506;24.192;2023-03-31T14:14:01;94840.28;;;18.14;30.82
61961;BME280;47923;42.506;24.192;2023-03-31T14:16:28;94902.06;;;18.28;31.19
61961;BME280;47923;42.506;24.192;2023-03-31T14:21:50;94875.59;;;17.85;31.62
61961;BME280;47923;42.506;24.192;2023-03-31T14:30:00;94773.88;;;17.54;31.08
61961;BME280;47923;42.506;24.192;2023-03-31T14:35:30;94787.47;;;17.58;31.54
61961;BME280;47923;42.506;24.192;2023-03-31T14:38:00;94736.28;;;16.99;31.89
61961;BME280;47923;42.506;24.192;2023-03-31T14:40:28;94851.53;;;17.77;31.95
61961;BME280;47923;42.506;24.192;2023-03-31T14:42:54;94838.50;;;17.84;31.84
61961;BME280;47923;42.506;24.192;2023-03-31T14:45:25;94695.53;;;16.88;32.11
61961;BME280;47923;42.506;24.192;2023-03-31T14:48:08;94760.50;;;17.40;31.76
61961;BME280;47923;42.506;24.192;2023-03-31T14:50:36;94664.19;;;16.76;31.77
61961;BME280;47923;42.506;24.192;2023-03-31T14:53:01;94873.84;;;18.15;31.21
61961;BME280;47923;42.506;24.192;2023-03-31T14:55:30;94873.47;;;18.13;31.46
61961;BME280;47923;42.506;24.192;2023-03-31T14:57:59;94778.47;;;17.37;32.01
61961;BME280;47923;42.506;24.192;2023-03-31T15:00:28;94815.34;;;17.49;31.48
61961;BME280;47923;42.506;24.192;2023-03-31T15:02:55;94873.63;;;17.86;31.49
61961;BME280;47923;42.506;24.192;2023-03-31T15:05:35;94863.72;;;17.92;31.75
61961;BME280;47923;42.506;24.192;2023-03-31T15:08:04;94864.91;;;17.91;32.32
61961;BME280;47923;42.506;24.192;2023-03-31T15:10:37;94781.47;;;17.23;32.49
61961;BME280;47923;42.506;24.192;2023-03-31T15:13:08;94647.75;;;16.33;32.21
61961;BME280;47923;42.506;24.192;2023-03-31T15:15:35;94853.50;;;17.53;32.10
61961;BME280;47923;42.506;24.192;2023-03-31T15:18:00;94882.59;;;17.63;32.24
61961;BME280;47923;42.506;24.192;2023-03-31T15:20:34;94848.81;;;17.53;32.40
61961;BME280;47923;42.506;24.192;2023-03-31T15:23:02;94800.88;;;17.05;32.24
61961;BME280;47923;42.506;24.192;2023-03-31T15:25:35;94853.84;;;17.31;32.95
61961;BME280;47923;42.506;24.192;2023-03-31T15:28:05;94796.78;;;16.70;33.42
61961;BME280;47923;42.506;24.192;2023-03-31T15:30:32;94771.47;;;16.66;33.25